createdAt,value
2018-06-23T00:00:37.204Z,2.92
2018-06-23T00:01:40.611Z,3.47
2018-06-23T00:02:44.051Z,3.70
2018-06-23T00:03:47.472Z,3.52
2018-06-23T00:04:50.855Z,3.67
2018-06-23T00:05:55.384Z,3.35
2018-06-23T00:06:58.514Z,3.10
2018-06-23T00:08:01.755Z,3.12
2018-06-23T00:09:06.606Z,3.30
2018-06-23T00:10:10.935Z,3.12
2018-06-23T00:11:15.473Z,3.42
2018-06-23T00:12:18.895Z,4.08
2018-06-23T00:13:22.271Z,3.27
2018-06-23T00:14:25.675Z,2.98
2018-06-23T00:15:30.118Z,3.33
2018-06-23T00:16:33.535Z,3.47
2018-06-23T00:17:37.119Z,2.80
2018-06-23T00:18:40.500Z,3.10
2018-06-23T00:19:44.407Z,2.85
2018-06-23T00:20:49.245Z,2.85
2018-06-23T00:21:52.687Z,2.65
2018-06-23T00:22:56.072Z,4.12
2018-06-23T00:23:59.459Z,3.60
2018-06-23T00:25:03.150Z,3.55
2018-06-23T00:26:12.680Z,3.50
2018-06-23T00:27:16.563Z,2.85
2018-06-23T00:28:19.967Z,3.15
2018-06-23T00:29:23.355Z,3.25
2018-06-23T00:30:27.964Z,2.87
2018-06-23T00:31:31.371Z,3.55
2018-06-23T00:32:34.819Z,3.35
2018-06-23T00:33:37.895Z,3.20
2018-06-23T00:34:40.995Z,3.25
2018-06-23T00:35:46.402Z,2.75
2018-06-23T00:36:49.799Z,2.67
2018-06-23T00:37:53.176Z,3.33
2018-06-23T00:38:56.251Z,3.60
2018-06-23T00:39:59.339Z,2.87
2018-06-23T00:41:03.208Z,3.22
2018-06-23T00:42:06.323Z,3.52
2018-06-23T00:43:09.398Z,3.85
2018-06-23T00:44:12.779Z,3.42
2018-06-23T00:45:17.227Z,3.83
2018-06-23T00:46:22.124Z,3.02
2018-06-23T00:47:25.504Z,3.15
2018-06-23T00:48:28.883Z,3.17
2018-06-23T00:49:31.963Z,3.20
2018-06-23T00:50:36.948Z,3.00
2018-06-23T00:51:40.119Z,3.27
2018-06-23T00:52:43.503Z,3.10
2018-06-23T00:53:46.881Z,3.22
2018-06-23T00:54:50.251Z,3.12
2018-06-23T00:55:54.609Z,3.17
2018-06-23T00:56:58.034Z,3.10
2018-06-23T00:58:01.555Z,3.40
2018-06-23T00:59:16.187Z,3.27
2018-06-23T01:00:20.607Z,3.52
2018-06-23T01:01:24.588Z,3.33
2018-06-23T01:02:28.028Z,3.45
2018-06-23T01:03:31.399Z,2.80
2018-06-23T01:04:35.008Z,3.33
2018-06-23T01:05:39.769Z,3.33
2018-06-23T01:06:43.187Z,3.55
2018-06-23T01:07:46.587Z,2.87
2018-06-23T01:08:49.972Z,3.10
2018-06-23T01:09:53.367Z,3.10
2018-06-23T01:10:57.761Z,3.00
2018-06-23T01:12:01.144Z,3.00
2018-06-23T01:13:04.807Z,3.62
2018-06-23T01:14:08.184Z,2.98
2018-06-23T01:15:12.646Z,3.62
2018-06-23T01:16:16.356Z,3.52
2018-06-23T01:17:19.491Z,3.17
2018-06-23T01:18:22.900Z,3.62
2018-06-23T01:19:26.471Z,2.80
2018-06-23T01:20:31.085Z,3.05
2018-06-23T01:21:34.512Z,3.30
2018-06-23T01:22:37.899Z,3.50
2018-06-23T01:23:41.347Z,3.17
2018-06-23T01:24:44.747Z,3.70
2018-06-23T01:25:49.286Z,3.90
2018-06-23T01:26:52.740Z,3.75
2018-06-23T01:27:56.111Z,3.08
2018-06-23T01:28:59.535Z,3.58
2018-06-23T01:30:03.686Z,3.42
2018-06-23T01:31:08.318Z,3.65
2018-06-23T01:32:11.801Z,3.80
2018-06-23T01:33:15.236Z,3.62
2018-06-23T01:34:18.645Z,3.70
2018-06-23T01:35:22.966Z,3.87
2018-06-23T01:36:28.475Z,3.35
2018-06-23T01:37:31.549Z,3.25
2018-06-23T01:38:34.643Z,3.27
2018-06-23T01:39:37.848Z,3.50
2018-06-23T01:40:42.393Z,3.60
2018-06-23T01:41:45.803Z,3.50
2018-06-23T01:42:49.195Z,3.58
2018-06-23T01:43:52.279Z,3.40
2018-06-23T01:44:55.377Z,4.87
2018-06-23T01:46:00.512Z,3.12
2018-06-23T01:47:03.927Z,3.85
2018-06-23T01:48:07.445Z,3.37
2018-06-23T01:49:10.815Z,3.25
2018-06-23T01:50:15.192Z,3.62
2018-06-23T01:51:19.579Z,2.80
2018-06-23T01:52:22.979Z,3.77
2018-06-23T01:53:26.400Z,3.87
2018-06-23T01:54:29.787Z,3.75
2018-06-23T01:55:34.262Z,3.10
2018-06-23T01:56:37.685Z,3.62
2018-06-23T01:57:41.067Z,3.20
2018-06-23T01:58:44.471Z,3.00
2018-06-23T01:59:47.864Z,3.80
2018-06-23T02:00:52.412Z,3.50
2018-06-23T02:01:55.831Z,3.92
2018-06-23T02:02:59.215Z,3.95
2018-06-23T02:04:02.652Z,3.52
2018-06-23T02:05:07.763Z,3.60
2018-06-23T02:06:11.762Z,3.20
2018-06-23T02:07:14.862Z,3.20
2018-06-23T02:08:17.936Z,4.12
2018-06-23T02:09:21.014Z,3.75
2018-06-23T02:10:24.854Z,3.17
2018-06-23T02:11:29.119Z,3.35
2018-06-23T02:12:32.234Z,3.55
2018-06-23T02:13:35.737Z,2.98
2018-06-23T02:14:44.537Z,3.37
2018-06-23T02:15:54.160Z,3.55
2018-06-23T02:17:02.900Z,3.37
2018-06-23T02:18:11.904Z,3.62
2018-06-23T02:19:20.500Z,3.67
2018-06-23T02:20:30.079Z,3.30
2018-06-23T02:21:38.763Z,3.70
2018-06-23T02:22:47.475Z,2.80
2018-06-23T02:23:56.279Z,3.77
2018-06-23T02:25:05.274Z,3.45
2018-06-23T02:26:14.683Z,3.20
2018-06-23T02:27:23.339Z,3.45
2018-06-23T02:28:32.083Z,3.60
2018-06-23T02:29:40.791Z,3.15
2018-06-23T02:30:50.269Z,3.20
2018-06-23T02:31:59.007Z,3.42
2018-06-23T02:33:07.848Z,3.02
2018-06-23T02:34:16.403Z,3.17
2018-06-23T02:35:21.259Z,3.08
2018-06-23T02:36:26.031Z,3.60
2018-06-23T02:37:29.442Z,4.05
2018-06-23T02:38:32.863Z,3.45
2018-06-23T02:39:36.247Z,3.37
2018-06-23T02:40:40.911Z,3.00
2018-06-23T02:41:44.372Z,3.25
2018-06-23T02:42:47.454Z,3.37
2018-06-23T02:43:50.577Z,3.35
2018-06-23T02:44:53.957Z,3.92
2018-06-23T02:45:59.076Z,3.58
2018-06-23T02:47:02.546Z,3.70
2018-06-23T02:48:05.952Z,3.10
2018-06-23T02:49:09.352Z,3.60
2018-06-23T02:50:13.793Z,3.35
2018-06-23T02:51:18.248Z,3.40
2018-06-23T02:52:21.395Z,3.62
2018-06-23T02:53:24.815Z,3.58
2018-06-23T02:54:28.240Z,3.33
2018-06-23T02:55:33.263Z,4.20
2018-06-23T02:56:36.375Z,3.42
2018-06-23T02:57:39.447Z,3.35
2018-06-23T02:58:42.832Z,3.35
2018-06-23T02:59:46.215Z,3.83
2018-06-23T03:00:50.842Z,3.80
2018-06-23T03:01:54.260Z,3.35
2018-06-23T03:02:57.645Z,3.50
2018-06-23T03:04:01.027Z,3.65
2018-06-23T03:05:05.885Z,3.40
2018-06-23T03:06:10.985Z,3.52
2018-06-23T03:07:14.588Z,3.27
2018-06-23T03:08:17.968Z,3.87
2018-06-23T03:09:21.350Z,3.00
2018-06-23T03:10:25.868Z,3.92
2018-06-23T03:11:29.951Z,3.50
2018-06-23T03:12:33.328Z,3.22
2018-06-23T03:13:36.717Z,4.00
2018-06-23T03:14:40.092Z,3.22
2018-06-23T03:15:44.432Z,3.60
2018-06-23T03:16:47.828Z,3.65
2018-06-23T03:17:51.212Z,3.27
2018-06-23T03:18:55.236Z,3.77
2018-06-23T03:19:58.631Z,3.92
2018-06-23T03:21:03.200Z,4.05
2018-06-23T03:22:06.622Z,3.72
2018-06-23T03:23:10.016Z,3.52
2018-06-23T03:24:13.447Z,3.83
2018-06-23T03:25:17.961Z,3.33
2018-06-23T03:26:22.511Z,3.92
2018-06-23T03:27:25.902Z,3.58
2018-06-23T03:28:29.275Z,3.55
2018-06-23T03:29:32.667Z,3.60
2018-06-23T03:30:37.224Z,3.72
2018-06-23T03:31:40.656Z,3.33
2018-06-23T03:32:44.051Z,4.15
2018-06-23T03:33:47.467Z,3.20
2018-06-23T03:34:50.851Z,3.90
2018-06-23T03:35:55.294Z,3.65
2018-06-23T03:36:58.742Z,4.42
2018-06-23T03:38:02.123Z,4.90
2018-06-23T03:39:08.447Z,2.92
2018-06-23T03:40:13.047Z,4.22
2018-06-23T03:41:17.872Z,4.12
2018-06-23T03:42:21.316Z,4.78
2018-06-23T03:43:24.725Z,3.58
2018-06-23T03:44:28.100Z,3.40
2018-06-23T03:45:33.181Z,4.20
2018-06-23T03:46:36.579Z,3.80
2018-06-23T03:47:39.991Z,3.92
2018-06-23T03:48:43.066Z,4.33
2018-06-23T03:49:46.139Z,3.80
2018-06-23T03:50:49.967Z,3.55
2018-06-23T03:51:53.392Z,3.35
2018-06-23T03:52:56.819Z,3.40
2018-06-23T03:53:59.906Z,4.30
2018-06-23T03:55:03.764Z,3.83
2018-06-23T03:56:07.576Z,3.50
2018-06-23T03:57:10.987Z,3.75
2018-06-23T03:58:14.387Z,4.42
2018-06-23T03:59:17.779Z,3.92
2018-06-23T04:00:22.588Z,3.85
2018-06-23T04:01:26.967Z,3.47
2018-06-23T04:02:30.370Z,3.80
2018-06-23T04:03:33.815Z,3.70
2018-06-23T04:04:37.203Z,3.50
2018-06-23T04:05:46.507Z,4.10
2018-06-23T04:06:49.931Z,3.70
2018-06-23T04:07:53.338Z,4.22
2018-06-23T04:08:56.434Z,3.55
2018-06-23T04:09:59.820Z,4.50
2018-06-23T04:11:04.481Z,3.72
2018-06-23T04:12:07.623Z,3.42
2018-06-23T04:13:11.018Z,3.52
2018-06-23T04:14:14.420Z,4.03
2018-06-23T04:15:18.939Z,4.50
2018-06-23T04:16:23.118Z,3.75
2018-06-23T04:17:26.547Z,3.55
2018-06-23T04:18:29.923Z,4.30
2018-06-23T04:19:33.331Z,3.60
2018-06-23T04:20:37.804Z,4.00
2018-06-23T04:21:41.227Z,4.22
2018-06-23T04:22:44.607Z,3.40
2018-06-23T04:23:47.995Z,3.95
2018-06-23T04:24:51.402Z,3.77
2018-06-23T04:25:55.070Z,3.47
2018-06-23T04:26:58.171Z,4.15
2018-06-23T04:28:01.247Z,3.85
2018-06-23T04:29:04.326Z,4.03
2018-06-23T04:30:08.379Z,4.35
2018-06-23T04:31:12.794Z,3.45
2018-06-23T04:32:16.717Z,4.10
2018-06-23T04:33:20.136Z,3.70
2018-06-23T04:34:23.571Z,3.22
2018-06-23T04:35:28.027Z,3.70
2018-06-23T04:36:31.424Z,3.95
2018-06-23T04:37:34.804Z,3.92
2018-06-23T04:38:38.367Z,3.60
2018-06-23T04:39:41.841Z,4.10
2018-06-23T04:40:46.314Z,3.65
2018-06-23T04:41:49.729Z,4.20
2018-06-23T04:42:53.116Z,3.45
2018-06-23T04:43:56.507Z,4.15
2018-06-23T04:44:59.895Z,4.35
2018-06-23T04:46:04.438Z,3.42
2018-06-23T04:47:07.867Z,3.87
2018-06-23T04:48:11.251Z,3.35
2018-06-23T04:49:14.659Z,5.08
2018-06-23T04:50:19.014Z,3.50
2018-06-23T04:51:23.139Z,4.20
2018-06-23T04:52:26.544Z,4.70
2018-06-23T04:53:30.143Z,3.77
2018-06-23T04:54:33.519Z,3.98
2018-06-23T04:55:38.039Z,3.85
2018-06-23T04:56:41.176Z,4.30
2018-06-23T04:57:44.561Z,4.20
2018-06-23T04:58:47.939Z,4.03
2018-06-23T04:59:51.324Z,3.85
2018-06-23T05:00:55.753Z,3.85
2018-06-23T05:01:59.195Z,3.92
2018-06-23T05:03:02.579Z,3.98
2018-06-23T05:04:05.955Z,4.08
2018-06-23T05:05:10.649Z,4.33
2018-06-23T05:06:15.064Z,4.33
2018-06-23T05:07:18.504Z,3.90
2018-06-23T05:08:21.582Z,4.90
2018-06-23T05:09:24.655Z,4.40
2018-06-23T05:10:28.741Z,3.42
2018-06-23T05:11:31.839Z,4.35
2018-06-23T05:12:34.967Z,3.72
2018-06-23T05:13:38.412Z,3.55
2018-06-23T05:14:41.844Z,3.55
2018-06-23T05:15:46.066Z,4.05
2018-06-23T05:16:49.174Z,3.58
2018-06-23T05:17:52.290Z,4.42
2018-06-23T05:18:55.669Z,3.58
2018-06-23T05:19:59.051Z,4.17
2018-06-23T05:21:04.183Z,4.67
2018-06-23T05:22:07.652Z,3.65
2018-06-23T05:23:10.767Z,3.75
2018-06-23T05:24:14.135Z,3.62
2018-06-23T05:25:18.543Z,3.60
2018-06-23T05:26:22.681Z,4.17
2018-06-23T05:27:26.073Z,4.20
2018-06-23T05:28:29.483Z,4.25
2018-06-23T05:29:32.876Z,4.28
2018-06-23T05:30:36.572Z,4.03
2018-06-23T05:31:39.980Z,3.98
2018-06-23T05:32:43.446Z,4.75
2018-06-23T05:33:46.531Z,3.92
2018-06-23T05:34:49.607Z,4.20
2018-06-23T05:35:53.793Z,4.35
2018-06-23T05:36:57.167Z,3.95
2018-06-23T05:38:00.551Z,4.00
2018-06-23T05:39:05.789Z,4.22
2018-06-23T05:40:10.347Z,3.92
2018-06-23T05:41:14.683Z,3.27
2018-06-23T05:42:18.098Z,4.20
2018-06-23T05:43:21.479Z,4.00
2018-06-23T05:44:26.244Z,3.77
2018-06-23T05:45:30.892Z,3.70
2018-06-23T05:46:34.796Z,3.87
2018-06-23T05:47:38.181Z,4.35
2018-06-23T05:48:41.582Z,3.72
2018-06-23T05:49:45.164Z,3.67
2018-06-23T05:50:49.564Z,3.98
2018-06-23T05:51:52.675Z,3.92
2018-06-23T05:52:56.063Z,4.25
2018-06-23T05:53:59.138Z,3.90
2018-06-23T05:55:02.677Z,4.47
2018-06-23T05:56:07.067Z,3.80
2018-06-23T05:57:10.503Z,4.08
2018-06-23T05:58:13.879Z,3.92
2018-06-23T05:59:17.272Z,4.30
2018-06-23T06:00:22.044Z,4.75
2018-06-23T06:01:26.510Z,3.87
2018-06-23T06:02:29.606Z,3.90
2018-06-23T06:03:32.983Z,4.47
2018-06-23T06:04:36.376Z,3.70
2018-06-23T06:05:41.281Z,4.15
2018-06-23T06:06:44.847Z,3.42
2018-06-23T06:07:48.235Z,4.37
2018-06-23T06:08:51.620Z,5.22
2018-06-23T06:09:55.015Z,4.15
2018-06-23T06:11:00.068Z,4.03
2018-06-23T06:12:03.497Z,3.50
2018-06-23T06:13:06.949Z,4.37
2018-06-23T06:14:10.023Z,3.72
2018-06-23T06:15:14.336Z,3.47
2018-06-23T06:16:23.486Z,4.22
2018-06-23T06:17:28.123Z,4.45
2018-06-23T06:18:31.512Z,3.70
2018-06-23T06:19:34.897Z,4.22
2018-06-23T06:20:39.571Z,3.60
2018-06-23T06:21:43.003Z,3.87
2018-06-23T06:22:47.104Z,4.62
2018-06-23T06:23:50.649Z,3.25
2018-06-23T06:24:54.008Z,3.60
2018-06-23T06:25:58.525Z,4.53
2018-06-23T06:27:01.969Z,3.40
2018-06-23T06:28:05.371Z,3.65
2018-06-23T06:29:10.160Z,3.75
2018-06-23T06:30:14.611Z,3.87
2018-06-23T06:31:19.085Z,3.72
2018-06-23T06:32:22.827Z,3.90
2018-06-23T06:33:26.211Z,4.10
2018-06-23T06:34:29.603Z,3.95
2018-06-23T06:35:34.057Z,4.37
2018-06-23T06:36:37.467Z,3.80
2018-06-23T06:37:40.884Z,3.62
2018-06-23T06:38:44.298Z,3.72
2018-06-23T06:39:47.650Z,4.65
2018-06-23T06:40:53.126Z,3.85
2018-06-23T06:41:56.555Z,3.75
2018-06-23T06:42:59.951Z,3.70
2018-06-23T06:44:03.404Z,3.67
2018-06-23T06:45:07.985Z,4.03
2018-06-23T06:46:15.347Z,3.80
2018-06-23T06:47:19.927Z,4.22
2018-06-23T06:48:23.388Z,4.65
2018-06-23T06:49:26.835Z,3.70
2018-06-23T06:50:32.313Z,4.20
2018-06-23T06:51:35.735Z,3.92
2018-06-23T06:52:39.199Z,3.58
2018-06-23T06:53:42.608Z,3.40
2018-06-23T06:54:46.191Z,4.47
2018-06-23T06:55:50.762Z,3.87
2018-06-23T06:56:54.303Z,3.80
2018-06-23T06:57:57.688Z,4.15
2018-06-23T06:59:01.128Z,3.70
2018-06-23T07:00:06.163Z,3.40
2018-06-23T07:01:10.390Z,4.03
2018-06-23T07:02:13.800Z,3.45
2018-06-23T07:03:17.183Z,4.15
2018-06-23T07:04:20.883Z,3.35
2018-06-23T07:05:25.713Z,4.25
2018-06-23T07:06:30.156Z,3.42
2018-06-23T07:07:33.537Z,3.20
2018-06-23T07:08:36.935Z,4.10
2018-06-23T07:09:40.331Z,3.33
2018-06-23T07:10:45.694Z,3.52
2018-06-23T07:11:48.801Z,3.65
2018-06-23T07:12:52.183Z,3.87
2018-06-23T07:13:55.601Z,3.05
2018-06-23T07:14:59.003Z,3.00
2018-06-23T07:16:03.379Z,3.80
2018-06-23T07:17:06.789Z,3.60
2018-06-23T07:18:10.185Z,3.52
2018-06-23T07:19:13.575Z,3.60
2018-06-23T07:20:18.403Z,3.33
2018-06-23T07:21:22.703Z,3.65
2018-06-23T07:22:26.096Z,3.42
2018-06-23T07:23:29.513Z,3.42
2018-06-23T07:24:32.872Z,3.45
2018-06-23T07:25:38.484Z,4.35
2018-06-23T07:26:41.928Z,3.58
2018-06-23T07:27:45.331Z,3.92
2018-06-23T07:28:48.429Z,3.20
2018-06-23T07:29:51.563Z,3.58
2018-06-23T07:30:56.575Z,3.50
2018-06-23T07:31:59.985Z,3.70
2018-06-23T07:33:03.363Z,3.27
2018-06-23T07:34:06.767Z,3.55
2018-06-23T07:35:10.638Z,3.20
2018-06-23T07:36:15.190Z,3.80
2018-06-23T07:37:18.656Z,3.30
2018-06-23T07:38:22.047Z,3.45
2018-06-23T07:39:26.770Z,3.47
2018-06-23T07:40:30.678Z,3.35
2018-06-23T07:41:34.120Z,3.17
2018-06-23T07:42:37.525Z,3.27
2018-06-23T07:43:40.941Z,2.83
2018-06-23T07:44:44.330Z,3.12
2018-06-23T07:45:49.099Z,3.45
2018-06-23T07:46:52.230Z,3.62
2018-06-23T07:47:55.606Z,3.77
2018-06-23T07:48:58.682Z,3.50
2018-06-23T07:50:02.193Z,3.22
2018-06-23T07:51:06.566Z,3.50
2018-06-23T07:52:09.995Z,3.00
2018-06-23T07:53:13.372Z,3.17
2018-06-23T07:54:16.754Z,3.22
2018-06-23T07:55:21.126Z,2.70
2018-06-23T07:56:25.169Z,3.30
2018-06-23T07:57:30.992Z,3.00
2018-06-23T07:58:34.074Z,3.15
2018-06-23T07:59:37.463Z,2.67
2018-06-23T08:00:42.009Z,3.08
2018-06-23T08:01:45.517Z,3.83
2018-06-23T08:02:48.939Z,3.37
2018-06-23T08:03:52.021Z,3.52
2018-06-23T08:04:55.102Z,3.37
2018-06-23T08:05:59.259Z,2.80
2018-06-23T08:07:03.386Z,3.67
2018-06-23T08:08:06.867Z,3.77
2018-06-23T08:09:10.507Z,4.03
2018-06-23T08:10:15.483Z,3.95
2018-06-23T08:11:18.954Z,3.72
2018-06-23T08:12:22.572Z,4.20
2018-06-23T08:13:25.982Z,3.62
2018-06-23T08:14:29.076Z,4.55
2018-06-23T08:15:34.106Z,4.55
2018-06-23T08:16:37.516Z,3.90
2018-06-23T08:17:40.970Z,4.53
2018-06-23T08:18:44.741Z,4.22
2018-06-23T08:19:47.815Z,4.70
2018-06-23T08:20:52.843Z,3.83
2018-06-23T08:21:56.339Z,4.45
2018-06-23T08:22:59.723Z,4.10
2018-06-23T08:24:02.821Z,3.67
2018-06-23T08:25:07.541Z,3.92
2018-06-23T08:26:12.092Z,4.47
2018-06-23T08:27:15.495Z,3.92
2018-06-23T08:28:18.867Z,3.12
2018-06-23T08:29:22.285Z,3.52
2018-06-23T08:30:26.623Z,3.90
2018-06-23T08:31:30.208Z,2.70
2018-06-23T08:32:33.614Z,3.45
2018-06-23T08:33:37.114Z,2.95
2018-06-23T08:34:40.574Z,3.37
2018-06-23T08:35:44.995Z,3.10
2018-06-23T08:36:48.415Z,3.05
2018-06-23T08:37:51.868Z,2.90
2018-06-23T08:38:55.197Z,3.50
2018-06-23T08:39:58.587Z,3.95
2018-06-23T08:41:02.983Z,3.65
2018-06-23T08:42:06.082Z,2.60
2018-06-23T08:43:09.490Z,3.05
2018-06-23T08:44:12.920Z,2.85
2018-06-23T08:45:17.404Z,3.40
2018-06-23T08:46:21.736Z,2.92
2018-06-23T08:47:25.135Z,3.00
2018-06-23T08:48:28.520Z,2.83
2018-06-23T08:49:31.923Z,3.20
2018-06-23T08:50:36.429Z,3.12
2018-06-23T08:51:39.538Z,3.60
2018-06-23T08:52:42.615Z,3.30
2018-06-23T08:53:45.703Z,3.62
2018-06-23T08:54:48.778Z,2.77
2018-06-23T08:55:53.343Z,3.20
2018-06-23T08:56:56.725Z,2.77
2018-06-23T08:58:00.124Z,2.90
2018-06-23T08:59:03.507Z,3.37
2018-06-23T09:00:08.387Z,3.62
2018-06-23T09:01:13.291Z,3.30
2018-06-23T09:02:16.919Z,5.12
2018-06-23T09:03:20.294Z,3.30
2018-06-23T09:04:23.734Z,3.60
2018-06-23T09:05:28.088Z,3.42
2018-06-23T09:06:32.231Z,3.30
2018-06-23T09:07:35.623Z,3.70
2018-06-23T09:08:39.015Z,3.22
2018-06-23T09:09:42.389Z,4.80
2018-06-23T09:10:46.761Z,4.95
2018-06-23T09:11:50.191Z,3.45
2018-06-23T09:12:53.567Z,3.20
2018-06-23T09:13:56.959Z,3.08
2018-06-23T09:15:00.328Z,3.17
2018-06-23T09:16:04.685Z,3.45
2018-06-23T09:17:08.099Z,2.70
2018-06-23T09:18:11.491Z,2.95
2018-06-23T09:19:14.873Z,2.92
2018-06-23T09:20:19.319Z,3.87
2018-06-23T09:21:22.883Z,3.00
2018-06-23T09:22:26.719Z,2.83
2018-06-23T09:23:30.126Z,2.72
2018-06-23T09:24:33.209Z,2.90
2018-06-23T09:25:37.346Z,3.10
2018-06-23T09:26:40.736Z,2.55
2018-06-23T09:27:44.135Z,3.22
2018-06-23T09:28:47.523Z,2.90
2018-06-23T09:29:50.907Z,3.22
2018-06-23T09:30:55.642Z,3.15
2018-06-23T09:31:58.746Z,3.15
2018-06-23T09:33:02.144Z,3.12
2018-06-23T09:34:05.552Z,2.95
2018-06-23T09:35:10.914Z,2.35
2018-06-23T09:36:15.983Z,3.05
2018-06-23T09:37:19.404Z,3.02
2018-06-23T09:38:22.980Z,2.92
2018-06-23T09:39:26.792Z,2.50
2018-06-23T09:40:32.023Z,3.02
2018-06-23T09:41:35.475Z,2.40
2018-06-23T09:42:38.855Z,2.52
2018-06-23T09:43:42.247Z,3.00
2018-06-23T09:44:45.631Z,3.65
2018-06-23T09:45:50.108Z,3.52
2018-06-23T09:46:53.574Z,2.72
2018-06-23T09:47:57.015Z,3.05
2018-06-23T09:49:00.663Z,3.17
2018-06-23T09:50:04.520Z,2.60
2018-06-23T09:51:09.000Z,2.67
2018-06-23T09:52:12.403Z,3.37
2018-06-23T09:53:15.787Z,2.90
2018-06-23T09:54:19.231Z,2.60
2018-06-23T09:55:23.555Z,2.80
2018-06-23T09:56:28.271Z,3.08
2018-06-23T09:57:31.687Z,3.25
2018-06-23T09:58:35.067Z,3.05
2018-06-23T09:59:39.336Z,2.40
2018-06-23T10:00:43.768Z,2.77
2018-06-23T10:01:47.167Z,2.75
2018-06-23T10:02:50.237Z,2.45
2018-06-23T10:03:53.654Z,2.87
2018-06-23T10:04:57.051Z,2.58
2018-06-23T10:06:01.456Z,2.58
2018-06-23T10:07:04.966Z,2.90
2018-06-23T10:08:08.355Z,3.15
2018-06-23T10:09:11.939Z,2.75
2018-06-23T10:10:17.482Z,3.37
2018-06-23T10:11:22.099Z,2.58
2018-06-23T10:12:25.476Z,2.70
2018-06-23T10:13:28.848Z,2.83
2018-06-23T10:14:32.223Z,2.83
2018-06-23T10:15:37.269Z,2.40
2018-06-23T10:16:40.683Z,3.08
2018-06-23T10:17:44.067Z,2.55
2018-06-23T10:18:47.451Z,2.45
2018-06-23T10:19:50.827Z,2.33
2018-06-23T10:20:56.954Z,2.62
2018-06-23T10:22:00.367Z,2.60
2018-06-23T10:23:03.747Z,2.58
2018-06-23T10:24:07.129Z,2.85
2018-06-23T10:25:12.021Z,2.52
2018-06-23T10:26:16.461Z,2.70
2018-06-23T10:27:19.918Z,2.27
2018-06-23T10:28:22.958Z,2.75
2018-06-23T10:29:26.339Z,2.15
2018-06-23T10:30:30.668Z,2.35
2018-06-23T10:31:34.102Z,2.50
2018-06-23T10:32:37.511Z,2.62
2018-06-23T10:33:40.888Z,2.02
2018-06-23T10:34:44.275Z,2.62
2018-06-23T10:35:48.614Z,2.60
2018-06-23T10:36:52.037Z,2.30
2018-06-23T10:37:55.414Z,2.08
2018-06-23T10:38:58.924Z,2.15
2018-06-23T10:40:02.324Z,2.37
2018-06-23T10:41:06.729Z,2.75
2018-06-23T10:42:09.879Z,2.72
2018-06-23T10:43:13.255Z,2.37
2018-06-23T10:44:16.635Z,3.10
2018-06-23T10:45:21.033Z,2.62
2018-06-23T10:46:25.246Z,2.52
2018-06-23T10:47:28.350Z,2.90
2018-06-23T10:48:31.735Z,2.67
2018-06-23T10:49:35.127Z,2.52
2018-06-23T10:50:39.604Z,2.77
2018-06-23T10:51:43.025Z,2.70
2018-06-23T10:52:46.411Z,3.08
2018-06-23T10:53:49.787Z,2.85
2018-06-23T10:54:53.175Z,2.90
2018-06-23T10:55:58.076Z,2.47
2018-06-23T10:57:01.491Z,2.50
2018-06-23T10:58:04.906Z,2.70
2018-06-23T10:59:08.283Z,2.60
2018-06-23T11:00:12.609Z,2.85
2018-06-23T11:01:17.091Z,3.30
2018-06-23T11:02:20.496Z,3.15
2018-06-23T11:03:23.911Z,2.92
2018-06-23T11:04:26.990Z,3.00
2018-06-23T11:05:30.963Z,2.75
2018-06-23T11:06:34.355Z,3.33
2018-06-23T11:07:37.733Z,2.60
2018-06-23T11:08:41.191Z,2.30
2018-06-23T11:09:44.607Z,2.77
2018-06-23T11:10:49.097Z,2.10
2018-06-23T11:11:52.551Z,2.08
2018-06-23T11:12:55.622Z,2.70
2018-06-23T11:13:58.719Z,2.12
2018-06-23T11:15:02.155Z,2.42
2018-06-23T11:16:06.060Z,2.95
2018-06-23T11:17:09.154Z,2.27
2018-06-23T11:18:12.259Z,2.00
2018-06-23T11:19:15.652Z,2.33
2018-06-23T11:20:20.161Z,3.02
2018-06-23T11:21:24.739Z,2.50
2018-06-23T11:22:28.128Z,2.00
2018-06-23T11:23:31.511Z,2.60
2018-06-23T11:24:35.090Z,2.10
2018-06-23T11:25:39.406Z,2.02
2018-06-23T11:26:42.503Z,1.92
2018-06-23T11:27:45.575Z,2.10
2018-06-23T11:28:48.666Z,2.35
2018-06-23T11:29:52.108Z,1.80
2018-06-23T11:30:57.506Z,1.80
2018-06-23T11:32:00.924Z,2.00
2018-06-23T11:33:04.311Z,2.08
2018-06-23T11:34:07.727Z,1.80
2018-06-23T11:35:12.282Z,2.25
2018-06-23T11:36:16.677Z,2.22
2018-06-23T11:37:20.079Z,2.20
2018-06-23T11:38:23.461Z,2.42
2018-06-23T11:39:26.983Z,2.10
2018-06-23T11:40:31.512Z,1.95
2018-06-23T11:41:34.623Z,2.10
2018-06-23T11:42:37.996Z,2.70
2018-06-23T11:43:41.099Z,2.02
2018-06-23T11:44:44.475Z,1.92
2018-06-23T11:45:48.931Z,2.37
2018-06-23T11:46:52.327Z,1.80
2018-06-23T11:47:55.707Z,1.75
2018-06-23T11:48:59.084Z,1.67
2018-06-23T11:50:03.468Z,2.37
2018-06-23T11:51:08.000Z,2.15
2018-06-23T11:52:11.430Z,1.60
2018-06-23T11:53:14.522Z,1.98
2018-06-23T11:54:17.587Z,1.70
2018-06-23T11:55:22.187Z,2.00
2018-06-23T11:56:26.382Z,1.75
2018-06-23T11:57:29.543Z,1.80
2018-06-23T11:58:32.911Z,1.60
2018-06-23T11:59:36.296Z,2.10
2018-06-23T12:00:40.758Z,1.95
2018-06-23T12:01:43.891Z,1.85
2018-06-23T12:02:47.251Z,2.12
2018-06-23T12:03:50.631Z,1.80
2018-06-23T12:04:53.703Z,1.87
2018-06-23T12:05:57.707Z,1.80
2018-06-23T12:07:01.103Z,2.00
2018-06-23T12:08:04.480Z,2.15
2018-06-23T12:09:08.005Z,1.60
2018-06-23T12:10:12.480Z,1.82
2018-06-23T12:11:16.988Z,2.08
2018-06-23T12:12:20.532Z,2.40
2018-06-23T12:13:23.961Z,2.42
2018-06-23T12:14:27.039Z,1.80
2018-06-23T12:15:32.179Z,2.10
2018-06-23T12:16:35.642Z,2.20
2018-06-23T12:17:39.012Z,2.05
2018-06-23T12:18:42.395Z,2.30
2018-06-23T12:19:46.259Z,2.02
2018-06-23T12:20:50.698Z,1.60
2018-06-23T12:21:54.091Z,2.27
2018-06-23T12:22:57.475Z,2.20
2018-06-23T12:24:00.863Z,2.52
2018-06-23T12:25:05.062Z,2.05
2018-06-23T12:26:09.747Z,1.70
2018-06-23T12:27:13.170Z,1.87
2018-06-23T12:28:16.539Z,1.85
2018-06-23T12:29:19.927Z,2.02
2018-06-23T12:30:24.445Z,2.05
2018-06-23T12:31:28.270Z,2.10
2018-06-23T12:32:31.651Z,2.02
2018-06-23T12:33:35.059Z,2.00
2018-06-23T12:34:38.136Z,2.65
2018-06-23T12:35:42.676Z,1.98
2018-06-23T12:36:46.112Z,2.42
2018-06-23T12:37:49.491Z,1.98
2018-06-23T12:38:52.919Z,1.57
2018-06-23T12:39:57.027Z,1.72
2018-06-23T12:41:01.483Z,1.77
2018-06-23T12:42:04.657Z,2.20
2018-06-23T12:43:08.032Z,2.05
2018-06-23T12:44:11.403Z,2.20
2018-06-23T12:45:15.709Z,2.22
2018-06-23T12:46:20.172Z,1.80
2018-06-23T12:47:23.595Z,2.08
2018-06-23T12:48:27.286Z,2.08
2018-06-23T12:49:30.615Z,1.60
2018-06-23T12:50:35.852Z,2.12
2018-06-23T12:51:39.271Z,2.12
2018-06-23T12:52:42.660Z,2.70
2018-06-23T12:53:46.043Z,2.60
2018-06-23T12:54:49.117Z,2.47
2018-06-23T12:55:52.893Z,2.65
2018-06-23T12:56:56.299Z,2.62
2018-06-23T12:57:59.432Z,2.70
2018-06-23T12:59:02.807Z,2.80
2018-06-23T13:00:08.746Z,2.70
2018-06-23T13:01:13.110Z,2.00
2018-06-23T13:02:16.509Z,2.50
2018-06-23T13:03:19.599Z,3.02
2018-06-23T13:04:22.663Z,2.80
2018-06-23T13:05:26.378Z,2.60
2018-06-23T13:06:29.980Z,2.25
2018-06-23T13:07:33.401Z,2.65
2018-06-23T13:08:36.791Z,2.60
2018-06-23T13:09:40.167Z,2.75
2018-06-23T13:10:44.462Z,3.02
2018-06-23T13:11:47.867Z,2.75
2018-06-23T13:12:51.242Z,2.50
2018-06-23T13:13:54.640Z,3.75
2018-06-23T13:14:58.072Z,2.47
2018-06-23T13:16:02.686Z,3.05
2018-06-23T13:17:06.095Z,4.47
2018-06-23T13:18:09.928Z,3.33
2018-06-23T13:19:13.312Z,3.08
2018-06-23T13:20:17.895Z,2.98
2018-06-23T13:21:22.640Z,2.25
2018-06-23T13:22:26.049Z,2.90
2018-06-23T13:23:29.436Z,3.42
2018-06-23T13:24:32.817Z,2.65
2018-06-23T13:25:38.123Z,3.00
2018-06-23T13:26:41.516Z,2.80
2018-06-23T13:27:44.988Z,2.67
2018-06-23T13:28:48.383Z,3.20
2018-06-23T13:29:51.760Z,3.17
2018-06-23T13:30:56.244Z,2.45
2018-06-23T13:31:59.647Z,2.47
2018-06-23T13:33:03.022Z,2.35
2018-06-23T13:34:06.432Z,2.80
2018-06-23T13:35:11.299Z,2.90
2018-06-23T13:36:15.786Z,2.52
2018-06-23T13:37:19.195Z,3.15
2018-06-23T13:38:22.274Z,2.72
2018-06-23T13:39:25.393Z,3.77
2018-06-23T13:40:30.116Z,2.40
2018-06-23T13:41:33.539Z,2.72
2018-06-23T13:42:37.067Z,3.30
2018-06-23T13:43:40.461Z,2.72
2018-06-23T13:44:43.855Z,3.50
2018-06-23T13:45:48.857Z,2.98
2018-06-23T13:46:52.284Z,3.02
2018-06-23T13:47:55.688Z,2.47
2018-06-23T13:48:59.104Z,2.98
2018-06-23T13:50:02.313Z,2.75
2018-06-23T13:51:06.722Z,2.92
2018-06-23T13:52:10.135Z,2.80
2018-06-23T13:53:13.519Z,2.58
2018-06-23T13:54:16.903Z,2.65
2018-06-23T13:55:21.406Z,2.90
2018-06-23T13:56:25.737Z,2.27
2018-06-23T13:57:28.835Z,2.65
2018-06-23T13:58:32.208Z,2.75
2018-06-23T13:59:35.588Z,2.52
2018-06-23T14:00:40.107Z,2.47
2018-06-23T14:01:43.503Z,3.00
2018-06-23T14:02:46.899Z,2.62
2018-06-23T14:03:50.274Z,2.50
2018-06-23T14:04:53.655Z,2.42
2018-06-23T14:05:58.226Z,2.80
2018-06-23T14:07:01.669Z,2.77
2018-06-23T14:08:05.089Z,2.58
2018-06-23T14:09:10.035Z,2.70
2018-06-23T14:10:14.384Z,2.58